sensor_id;sensor_type;location;lat;lon;timestamp;P1;durP1;ratioP1;P2;durP2;ratioP2
6197;SDS011;3132;42.622;23.328;2023-04-03T00:02:07;9.40;;;9.00;;
6197;SDS011;3132;42.622;23.328;2023-04-03T00:04:33;8.83;;;8.43;;
6197;SDS011;3132;42.622;23.328;2023-04-03T00:06:58;8.00;;;7.70;;
6197;SDS011;3132;42.622;23.328;2023-04-03T00:09:24;8.77;;;8.43;;
6197;SDS011;3132;42.622;23.328;2023-04-03T00:11:50;8.60;;;8.10;;
6197;SDS011;3132;42.622;23.328;2023-04-03T00:14:15;9.17;;;8.77;;
6197;SDS011;3132;42.622;23.328;2023-04-03T00:16:40;9.07;;;8.77;;
6197;SDS011;3132;42.622;23.328;2023-04-03T00:19:06;8.57;;;8.17;;
6197;SDS011;3132;42.622;23.328;2023-04-03T00:21:32;9.80;;;9.30;;
6197;SDS011;3132;42.622;23.328;2023-04-03T00:23:57;8.67;;;8.37;;
6197;SDS011;3132;42.622;23.328;2023-04-03T00:26:23;9.23;;;8.47;;
6197;SDS011;3132;42.622;23.328;2023-04-03T00:28:48;8.23;;;7.87;;
6197;SDS011;3132;42.622;23.328;2023-04-03T00:31:15;8.73;;;8.43;;
6197;SDS011;3132;42.622;23.328;2023-04-03T00:33:41;9.67;;;9.13;;
6197;SDS011;3132;42.622;23.328;2023-04-03T00:36:07;8.03;;;7.73;;
6197;SDS011;3132;42.622;23.328;2023-04-03T00:38:34;8.83;;;8.53;;
6197;SDS011;3132;42.622;23.328;2023-04-03T00:40:59;9.60;;;9.10;;
6197;SDS011;3132;42.622;23.328;2023-04-03T00:43:25;9.37;;;8.97;;
6197;SDS011;3132;42.622;23.328;2023-04-03T00:45:52;9.17;;;8.77;;
6197;SDS011;3132;42.622;23.328;2023-04-03T00:48:26;8.73;;;8.43;;
6197;SDS011;3132;42.622;23.328;2023-04-03T00:50:56;7.83;;;7.53;;
6197;SDS011;3132;42.622;23.328;2023-04-03T00:53:25;8.90;;;8.50;;
6197;SDS011;3132;42.622;23.328;2023-04-03T00:55:58;8.67;;;8.13;;
6197;SDS011;3132;42.622;23.328;2023-04-03T00:58:28;9.07;;;8.67;;
6197;SDS011;3132;42.622;23.328;2023-04-03T01:01:03;8.70;;;8.30;;
6197;SDS011;3132;42.622;23.328;2023-04-03T01:03:31;8.07;;;7.70;;
6197;SDS011;3132;42.622;23.328;2023-04-03T01:05:57;8.67;;;8.37;;
6197;SDS011;3132;42.622;23.328;2023-04-03T01:08:23;8.57;;;8.27;;
6197;SDS011;3132;42.622;23.328;2023-04-03T01:10:48;8.37;;;8.00;;
6197;SDS011;3132;42.622;23.328;2023-04-03T01:13:18;8.87;;;8.57;;
6197;SDS011;3132;42.622;23.328;2023-04-03T01:15:46;8.30;;;8.00;;
6197;SDS011;3132;42.622;23.328;2023-04-03T01:18:12;8.03;;;7.77;;
6197;SDS011;3132;42.622;23.328;2023-04-03T01:23:38;8.13;;;7.67;;
6197;SDS011;3132;42.622;23.328;2023-04-03T01:26:27;8.47;;;8.07;;
6197;SDS011;3132;42.622;23.328;2023-04-03T01:28:54;8.30;;;8.00;;
6197;SDS011;3132;42.622;23.328;2023-04-03T01:31:27;9.77;;;9.37;;
6197;SDS011;3132;42.622;23.328;2023-04-03T01:33:57;10.70;;;10.30;;
6197;SDS011;3132;42.622;23.328;2023-04-03T01:36:24;9.13;;;8.73;;
6197;SDS011;3132;42.622;23.328;2023-04-03T01:38:52;8.97;;;8.57;;
6197;SDS011;3132;42.622;23.328;2023-04-03T01:41:18;8.53;;;8.23;;
6197;SDS011;3132;42.622;23.328;2023-04-03T01:43:46;7.90;;;7.60;;
6197;SDS011;3132;42.622;23.328;2023-04-03T01:46:12;8.93;;;8.63;;
6197;SDS011;3132;42.622;23.328;2023-04-03T01:48:37;8.50;;;8.20;;
6197;SDS011;3132;42.622;23.328;2023-04-03T01:51:03;9.10;;;8.70;;
6197;SDS011;3132;42.622;23.328;2023-04-03T01:53:29;9.13;;;8.83;;
6197;SDS011;3132;42.622;23.328;2023-04-03T01:55:54;8.90;;;8.60;;
6197;SDS011;3132;42.622;23.328;2023-04-03T01:58:20;9.97;;;9.57;;
6197;SDS011;3132;42.622;23.328;2023-04-03T02:00:45;8.57;;;8.27;;
6197;SDS011;3132;42.622;23.328;2023-04-03T02:03:11;9.23;;;8.80;;
6197;SDS011;3132;42.622;23.328;2023-04-03T02:05:37;8.43;;;8.13;;
6197;SDS011;3132;42.622;23.328;2023-04-03T02:08:02;10.13;;;9.53;;
6197;SDS011;3132;42.622;23.328;2023-04-03T02:10:28;9.33;;;8.93;;
6197;SDS011;3132;42.622;23.328;2023-04-03T02:12:53;9.37;;;8.97;;
6197;SDS011;3132;42.622;23.328;2023-04-03T02:15:19;9.30;;;8.90;;
6197;SDS011;3132;42.622;23.328;2023-04-03T02:17:45;8.63;;;8.23;;
6197;SDS011;3132;42.622;23.328;2023-04-03T02:20:10;9.20;;;8.87;;
6197;SDS011;3132;42.622;23.328;2023-04-03T02:22:36;8.30;;;8.00;;
6197;SDS011;3132;42.622;23.328;2023-04-03T02:25:01;9.60;;;9.20;;
6197;SDS011;3132;42.622;23.328;2023-04-03T02:27:27;9.27;;;8.80;;
6197;SDS011;3132;42.622;23.328;2023-04-03T02:29:53;8.60;;;8.20;;
6197;SDS011;3132;42.622;23.328;2023-04-03T02:32:18;10.30;;;9.73;;
6197;SDS011;3132;42.622;23.328;2023-04-03T02:34:43;8.93;;;8.53;;
6197;SDS011;3132;42.622;23.328;2023-04-03T02:37:09;10.03;;;9.63;;
6197;SDS011;3132;42.622;23.328;2023-04-03T02:39:34;9.47;;;8.80;;
6197;SDS011;3132;42.622;23.328;2023-04-03T02:42:00;9.60;;;9.20;;
6197;SDS011;3132;42.622;23.328;2023-04-03T02:44:25;9.33;;;8.93;;
6197;SDS011;3132;42.622;23.328;2023-04-03T02:46:51;10.00;;;9.33;;
6197;SDS011;3132;42.622;23.328;2023-04-03T02:49:16;9.37;;;8.93;;
6197;SDS011;3132;42.622;23.328;2023-04-03T02:51:42;8.83;;;8.43;;
6197;SDS011;3132;42.622;23.328;2023-04-03T02:54:07;9.87;;;9.43;;
6197;SDS011;3132;42.622;23.328;2023-04-03T02:56:33;9.20;;;8.80;;
6197;SDS011;3132;42.622;23.328;2023-04-03T02:58:59;9.20;;;8.60;;
6197;SDS011;3132;42.622;23.328;2023-04-03T03:01:24;9.93;;;9.53;;
6197;SDS011;3132;42.622;23.328;2023-04-03T03:03:53;9.20;;;8.80;;
6197;SDS011;3132;42.622;23.328;2023-04-03T03:06:19;9.13;;;8.63;;
6197;SDS011;3132;42.622;23.328;2023-04-03T03:08:45;9.07;;;8.67;;
6197;SDS011;3132;42.622;23.328;2023-04-03T03:11:10;8.67;;;8.07;;
6197;SDS011;3132;42.622;23.328;2023-04-03T03:13:36;9.50;;;9.07;;
6197;SDS011;3132;42.622;23.328;2023-04-03T03:16:02;9.30;;;8.90;;
6197;SDS011;3132;42.622;23.328;2023-04-03T03:18:27;8.53;;;8.23;;
6197;SDS011;3132;42.622;23.328;2023-04-03T03:20:53;8.87;;;8.37;;
6197;SDS011;3132;42.622;23.328;2023-04-03T03:23:21;9.57;;;9.17;;
6197;SDS011;3132;42.622;23.328;2023-04-03T03:25:47;8.67;;;8.33;;
6197;SDS011;3132;42.622;23.328;2023-04-03T03:28:13;8.87;;;8.57;;
6197;SDS011;3132;42.622;23.328;2023-04-03T03:30:38;8.53;;;8.23;;
6197;SDS011;3132;42.622;23.328;2023-04-03T03:33:04;9.43;;;8.80;;
6197;SDS011;3132;42.622;23.328;2023-04-03T03:35:29;9.00;;;8.60;;
6197;SDS011;3132;42.622;23.328;2023-04-03T03:37:55;9.27;;;8.67;;
6197;SDS011;3132;42.622;23.328;2023-04-03T03:40:20;8.97;;;8.67;;
6197;SDS011;3132;42.622;23.328;2023-04-03T03:42:46;9.17;;;8.77;;
6197;SDS011;3132;42.622;23.328;2023-04-03T03:45:11;9.87;;;9.43;;
6197;SDS011;3132;42.622;23.328;2023-04-03T03:47:36;9.20;;;8.67;;
6197;SDS011;3132;42.622;23.328;2023-04-03T03:50:02;9.20;;;8.80;;
6197;SDS011;3132;42.622;23.328;2023-04-03T03:52:28;8.40;;;7.90;;
6197;SDS011;3132;42.622;23.328;2023-04-03T03:54:54;9.90;;;9.50;;
6197;SDS011;3132;42.622;23.328;2023-04-03T03:57:20;8.33;;;8.03;;
6197;SDS011;3132;42.622;23.328;2023-04-03T03:59:46;10.43;;;9.80;;
6197;SDS011;3132;42.622;23.328;2023-04-03T04:02:13;9.27;;;8.87;;
6197;SDS011;3132;42.622;23.328;2023-04-03T04:04:38;10.43;;;9.47;;
6197;SDS011;3132;42.622;23.328;2023-04-03T04:07:04;9.23;;;8.93;;
6197;SDS011;3132;42.622;23.328;2023-04-03T04:09:29;10.20;;;9.60;;
6197;SDS011;3132;42.622;23.328;2023-04-03T04:11:55;10.20;;;9.80;;
6197;SDS011;3132;42.622;23.328;2023-04-03T04:14:20;10.27;;;9.87;;
6197;SDS011;3132;42.622;23.328;2023-04-03T04:16:49;10.33;;;9.73;;
6197;SDS011;3132;42.622;23.328;2023-04-03T04:19:14;10.03;;;9.40;;
6197;SDS011;3132;42.622;23.328;2023-04-03T04:21:40;8.83;;;8.43;;
6197;SDS011;3132;42.622;23.328;2023-04-03T04:24:06;9.53;;;9.13;;
6197;SDS011;3132;42.622;23.328;2023-04-03T04:26:32;10.43;;;9.80;;
6197;SDS011;3132;42.622;23.328;2023-04-03T04:28:58;9.93;;;9.50;;
6197;SDS011;3132;42.622;23.328;2023-04-03T04:31:23;9.70;;;9.30;;
6197;SDS011;3132;42.622;23.328;2023-04-03T04:33:48;11.60;;;9.97;;
6197;SDS011;3132;42.622;23.328;2023-04-03T04:36:14;10.70;;;10.10;;
6197;SDS011;3132;42.622;23.328;2023-04-03T04:38:40;9.57;;;8.97;;
6197;SDS011;3132;42.622;23.328;2023-04-03T04:41:05;10.10;;;9.60;;
6197;SDS011;3132;42.622;23.328;2023-04-03T04:43:31;11.70;;;9.93;;
6197;SDS011;3132;42.622;23.328;2023-04-03T04:46:03;10.50;;;9.63;;
6197;SDS011;3132;42.622;23.328;2023-04-03T04:48:29;9.57;;;9.07;;
6197;SDS011;3132;42.622;23.328;2023-04-03T04:50:55;9.80;;;9.07;;
6197;SDS011;3132;42.622;23.328;2023-04-03T04:53:20;11.13;;;10.57;;
6197;SDS011;3132;42.622;23.328;2023-04-03T04:55:46;10.57;;;9.93;;
6197;SDS011;3132;42.622;23.328;2023-04-03T04:58:11;11.03;;;10.33;;
6197;SDS011;3132;42.622;23.328;2023-04-03T05:00:37;10.30;;;9.33;;
6197;SDS011;3132;42.622;23.328;2023-04-03T05:03:02;9.80;;;9.30;;
6197;SDS011;3132;42.622;23.328;2023-04-03T05:05:28;10.23;;;9.50;;
6197;SDS011;3132;42.622;23.328;2023-04-03T05:07:53;9.97;;;9.20;;
6197;SDS011;3132;42.622;23.328;2023-04-03T05:10:19;9.23;;;8.73;;
6197;SDS011;3132;42.622;23.328;2023-04-03T05:12:44;9.53;;;8.83;;
6197;SDS011;3132;42.622;23.328;2023-04-03T05:15:09;10.03;;;9.27;;
6197;SDS011;3132;42.622;23.328;2023-04-03T05:17:35;8.70;;;8.30;;
6197;SDS011;3132;42.622;23.328;2023-04-03T05:20:01;10.13;;;9.27;;
6197;SDS011;3132;42.622;23.328;2023-04-03T05:22:28;9.97;;;9.07;;
6197;SDS011;3132;42.622;23.328;2023-04-03T05:24:53;12.30;;;11.37;;
6197;SDS011;3132;42.622;23.328;2023-04-03T05:27:18;15.03;;;13.73;;
6197;SDS011;3132;42.622;23.328;2023-04-03T05:29:44;15.30;;;13.77;;
6197;SDS011;3132;42.622;23.328;2023-04-03T05:32:10;13.50;;;12.40;;
6197;SDS011;3132;42.622;23.328;2023-04-03T05:34:36;13.43;;;12.43;;
6197;SDS011;3132;42.622;23.328;2023-04-03T05:37:01;14.17;;;12.97;;
6197;SDS011;3132;42.622;23.328;2023-04-03T05:39:28;11.80;;;10.80;;
6197;SDS011;3132;42.622;23.328;2023-04-03T05:41:53;11.90;;;11.10;;
6197;SDS011;3132;42.622;23.328;2023-04-03T05:44:19;11.10;;;10.23;;
6197;SDS011;3132;42.622;23.328;2023-04-03T05:46:44;11.80;;;10.73;;
6197;SDS011;3132;42.622;23.328;2023-04-03T05:49:10;12.67;;;11.13;;
6197;SDS011;3132;42.622;23.328;2023-04-03T05:51:36;11.77;;;11.07;;
6197;SDS011;3132;42.622;23.328;2023-04-03T05:56:43;12.77;;;11.53;;
6197;SDS011;3132;42.622;23.328;2023-04-03T05:59:08;14.27;;;12.97;;
6197;SDS011;3132;42.622;23.328;2023-04-03T06:01:34;17.90;;;13.13;;
6197;SDS011;3132;42.622;23.328;2023-04-03T06:03:59;15.60;;;14.17;;
6197;SDS011;3132;42.622;23.328;2023-04-03T06:06:25;14.90;;;13.60;;
6197;SDS011;3132;42.622;23.328;2023-04-03T06:08:51;14.27;;;12.77;;
6197;SDS011;3132;42.622;23.328;2023-04-03T06:11:17;13.73;;;12.53;;
6197;SDS011;3132;42.622;23.328;2023-04-03T06:13:42;13.10;;;12.00;;
6197;SDS011;3132;42.622;23.328;2023-04-03T06:16:09;13.13;;;11.83;;
6197;SDS011;3132;42.622;23.328;2023-04-03T06:18:39;16.03;;;12.27;;
6197;SDS011;3132;42.622;23.328;2023-04-03T06:21:04;15.27;;;13.90;;
6197;SDS011;3132;42.622;23.328;2023-04-03T06:23:30;17.13;;;15.70;;
6197;SDS011;3132;42.622;23.328;2023-04-03T06:25:55;19.40;;;17.73;;
6197;SDS011;3132;42.622;23.328;2023-04-03T06:28:21;22.07;;;16.77;;
6197;SDS011;3132;42.622;23.328;2023-04-03T06:30:46;16.87;;;15.23;;
6197;SDS011;3132;42.622;23.328;2023-04-03T06:33:11;15.47;;;13.87;;
6197;SDS011;3132;42.622;23.328;2023-04-03T06:35:37;14.73;;;13.47;;
6197;SDS011;3132;42.622;23.328;2023-04-03T06:38:03;17.23;;;13.83;;
6197;SDS011;3132;42.622;23.328;2023-04-03T06:40:34;24.43;;;13.73;;
6197;SDS011;3132;42.622;23.328;2023-04-03T06:43:00;12.60;;;11.33;;
6197;SDS011;3132;42.622;23.328;2023-04-03T06:45:26;14.60;;;12.40;;
6197;SDS011;3132;42.622;23.328;2023-04-03T06:47:51;18.10;;;12.70;;
6197;SDS011;3132;42.622;23.328;2023-04-03T06:50:16;14.10;;;12.63;;
6197;SDS011;3132;42.622;23.328;2023-04-03T06:52:42;13.20;;;11.90;;
6197;SDS011;3132;42.622;23.328;2023-04-03T06:55:08;14.83;;;12.73;;
6197;SDS011;3132;42.622;23.328;2023-04-03T06:57:34;17.50;;;12.20;;
6197;SDS011;3132;42.622;23.328;2023-04-03T07:00:00;13.87;;;12.67;;
6197;SDS011;3132;42.622;23.328;2023-04-03T07:02:26;13.73;;;12.23;;
6197;SDS011;3132;42.622;23.328;2023-04-03T07:04:52;14.67;;;13.27;;
6197;SDS011;3132;42.622;23.328;2023-04-03T07:07:17;14.10;;;13.00;;
6197;SDS011;3132;42.622;23.328;2023-04-03T07:09:43;14.87;;;13.30;;
6197;SDS011;3132;42.622;23.328;2023-04-03T07:12:08;14.47;;;13.13;;
6197;SDS011;3132;42.622;23.328;2023-04-03T07:14:33;14.97;;;13.50;;
6197;SDS011;3132;42.622;23.328;2023-04-03T07:16:59;13.63;;;12.20;;
6197;SDS011;3132;42.622;23.328;2023-04-03T07:19:25;15.40;;;13.47;;
6197;SDS011;3132;42.622;23.328;2023-04-03T07:21:53;15.27;;;13.70;;
6197;SDS011;3132;42.622;23.328;2023-04-03T07:24:18;14.67;;;13.37;;
6197;SDS011;3132;42.622;23.328;2023-04-03T07:26:44;18.00;;;13.43;;
6197;SDS011;3132;42.622;23.328;2023-04-03T07:29:10;17.97;;;14.00;;
6197;SDS011;3132;42.622;23.328;2023-04-03T07:31:35;20.43;;;15.17;;
6197;SDS011;3132;42.622;23.328;2023-04-03T07:34:01;16.77;;;14.93;;
6197;SDS011;3132;42.622;23.328;2023-04-03T07:36:27;16.87;;;15.13;;
6197;SDS011;3132;42.622;23.328;2023-04-03T07:38:53;19.77;;;14.93;;
6197;SDS011;3132;42.622;23.328;2023-04-03T07:41:19;17.73;;;16.03;;
6197;SDS011;3132;42.622;23.328;2023-04-03T07:43:46;19.60;;;16.20;;
6197;SDS011;3132;42.622;23.328;2023-04-03T07:46:12;21.13;;;14.83;;
6197;SDS011;3132;42.622;23.328;2023-04-03T07:48:37;21.27;;;16.30;;
6197;SDS011;3132;42.622;23.328;2023-04-03T07:51:03;18.97;;;15.33;;
6197;SDS011;3132;42.622;23.328;2023-04-03T07:53:30;19.23;;;15.40;;
6197;SDS011;3132;42.622;23.328;2023-04-03T07:55:56;18.13;;;16.33;;
6197;SDS011;3132;42.622;23.328;2023-04-03T07:58:23;16.90;;;14.30;;
6197;SDS011;3132;42.622;23.328;2023-04-03T08:00:48;19.00;;;14.67;;
6197;SDS011;3132;42.622;23.328;2023-04-03T08:03:14;18.07;;;15.10;;
6197;SDS011;3132;42.622;23.328;2023-04-03T08:05:44;17.47;;;15.80;;
6197;SDS011;3132;42.622;23.328;2023-04-03T08:08:11;19.83;;;15.40;;
6197;SDS011;3132;42.622;23.328;2023-04-03T08:10:39;21.87;;;15.73;;
6197;SDS011;3132;42.622;23.328;2023-04-03T08:13:05;19.73;;;16.77;;
6197;SDS011;3132;42.622;23.328;2023-04-03T08:15:31;17.87;;;16.23;;
6197;SDS011;3132;42.622;23.328;2023-04-03T08:17:57;18.63;;;14.67;;
6197;SDS011;3132;42.622;23.328;2023-04-03T08:20:24;17.23;;;15.43;;
6197;SDS011;3132;42.622;23.328;2023-04-03T08:22:49;17.73;;;15.70;;
6197;SDS011;3132;42.622;23.328;2023-04-03T08:25:15;21.77;;;16.23;;
6197;SDS011;3132;42.622;23.328;2023-04-03T08:27:40;26.47;;;15.43;;
6197;SDS011;3132;42.622;23.328;2023-04-03T08:30:06;18.93;;;16.20;;
6197;SDS011;3132;42.622;23.328;2023-04-03T08:32:33;23.63;;;17.40;;
6197;SDS011;3132;42.622;23.328;2023-04-03T08:34:59;18.77;;;16.90;;
6197;SDS011;3132;42.622;23.328;2023-04-03T08:37:25;24.90;;;17.60;;
6197;SDS011;3132;42.622;23.328;2023-04-03T08:39:51;24.37;;;17.03;;
6197;SDS011;3132;42.622;23.328;2023-04-03T08:47:40;23.00;;;15.07;;
6197;SDS011;3132;42.622;23.328;2023-04-03T08:50:12;19.80;;;15.13;;
6197;SDS011;3132;42.622;23.328;2023-04-03T08:55:17;16.73;;;15.13;;
6197;SDS011;3132;42.622;23.328;2023-04-03T08:57:51;17.50;;;13.67;;
6197;SDS011;3132;42.622;23.328;2023-04-03T09:00:25;14.40;;;12.17;;
6197;SDS011;3132;42.622;23.328;2023-04-03T09:02:54;17.70;;;12.80;;
6197;SDS011;3132;42.622;23.328;2023-04-03T09:07:55;12.10;;;11.30;;
6197;SDS011;3132;42.622;23.328;2023-04-03T09:10:29;12.60;;;10.67;;
6197;SDS011;3132;42.622;23.328;2023-04-03T09:13:03;16.47;;;12.07;;
6197;SDS011;3132;42.622;23.328;2023-04-03T09:15:35;11.50;;;10.63;;
6197;SDS011;3132;42.622;23.328;2023-04-03T09:21:24;9.90;;;9.27;;
6197;SDS011;3132;42.622;23.328;2023-04-03T09:23:58;8.90;;;8.50;;
6197;SDS011;3132;42.622;23.328;2023-04-03T09:29:18;8.67;;;8.17;;
6197;SDS011;3132;42.622;23.328;2023-04-03T09:31:46;8.23;;;7.93;;
6197;SDS011;3132;42.622;23.328;2023-04-03T09:34:24;9.47;;;9.07;;
6197;SDS011;3132;42.622;23.328;2023-04-03T09:36:53;8.07;;;7.77;;
6197;SDS011;3132;42.622;23.328;2023-04-03T09:39:22;8.10;;;7.80;;
6197;SDS011;3132;42.622;23.328;2023-04-03T09:42:00;8.30;;;8.00;;
6197;SDS011;3132;42.622;23.328;2023-04-03T09:44:36;9.17;;;8.77;;
6197;SDS011;3132;42.622;23.328;2023-04-03T09:49:48;9.23;;;8.83;;
6197;SDS011;3132;42.622;23.328;2023-04-03T09:52:23;8.57;;;8.07;;
6197;SDS011;3132;42.622;23.328;2023-04-03T09:54:50;8.03;;;7.53;;
6197;SDS011;3132;42.622;23.328;2023-04-03T09:57:15;8.03;;;7.73;;
6197;SDS011;3132;42.622;23.328;2023-04-03T10:00:02;7.57;;;7.27;;
6197;SDS011;3132;42.622;23.328;2023-04-03T10:05:03;9.23;;;8.73;;
6197;SDS011;3132;42.622;23.328;2023-04-03T10:07:48;10.70;;;9.97;;
6197;SDS011;3132;42.622;23.328;2023-04-03T10:12:39;10.00;;;9.37;;
6197;SDS011;3132;42.622;23.328;2023-04-03T10:15:10;8.63;;;8.13;;
6197;SDS011;3132;42.622;23.328;2023-04-03T10:31:15;9.23;;;8.83;;
6197;SDS011;3132;42.622;23.328;2023-04-03T10:36:44;8.03;;;7.63;;
6197;SDS011;3132;42.622;23.328;2023-04-03T10:44:48;9.50;;;9.00;;
6197;SDS011;3132;42.622;23.328;2023-04-03T10:50:22;9.47;;;8.87;;
6197;SDS011;3132;42.622;23.328;2023-04-03T10:55:31;9.27;;;8.87;;
6197;SDS011;3132;42.622;23.328;2023-04-03T10:58:02;9.57;;;9.07;;
6197;SDS011;3132;42.622;23.328;2023-04-03T11:00:32;9.47;;;8.97;;
6197;SDS011;3132;42.622;23.328;2023-04-03T11:03:11;10.60;;;9.73;;
6197;SDS011;3132;42.622;23.328;2023-04-03T11:08:30;10.10;;;9.57;;
6197;SDS011;3132;42.622;23.328;2023-04-03T11:11:00;10.47;;;9.83;;
6197;SDS011;3132;42.622;23.328;2023-04-03T11:13:33;10.53;;;9.83;;
6197;SDS011;3132;42.622;23.328;2023-04-03T11:16:03;11.03;;;10.20;;
6197;SDS011;3132;42.622;23.328;2023-04-03T11:18:41;10.57;;;9.87;;
6197;SDS011;3132;42.622;23.328;2023-04-03T11:21:14;10.47;;;9.77;;
6197;SDS011;3132;42.622;23.328;2023-04-03T11:23:46;10.60;;;10.00;;
6197;SDS011;3132;42.622;23.328;2023-04-03T11:26:22;10.97;;;10.33;;
6197;SDS011;3132;42.622;23.328;2023-04-03T11:28:56;10.20;;;9.60;;
6197;SDS011;3132;42.622;23.328;2023-04-03T11:36:39;10.37;;;9.87;;
6197;SDS011;3132;42.622;23.328;2023-04-03T11:39:20;10.50;;;9.77;;
6197;SDS011;3132;42.622;23.328;2023-04-03T11:41:50;12.13;;;11.43;;
6197;SDS011;3132;42.622;23.328;2023-04-03T11:44:30;12.53;;;11.63;;
6197;SDS011;3132;42.622;23.328;2023-04-03T11:46:59;13.23;;;12.13;;
6197;SDS011;3132;42.622;23.328;2023-04-03T12:16:20;12.87;;;11.73;;
6197;SDS011;3132;42.622;23.328;2023-04-03T12:21:20;12.47;;;11.77;;
6197;SDS011;3132;42.622;23.328;2023-04-03T12:45:17;12.20;;;11.10;;
6197;SDS011;3132;42.622;23.328;2023-04-03T12:47:44;13.30;;;12.00;;
6197;SDS011;3132;42.622;23.328;2023-04-03T12:50:18;11.67;;;10.93;;
6197;SDS011;3132;42.622;23.328;2023-04-03T12:52:57;10.73;;;10.03;;
6197;SDS011;3132;42.622;23.328;2023-04-03T12:55:26;12.43;;;11.43;;
6197;SDS011;3132;42.622;23.328;2023-04-03T12:57:52;11.40;;;10.60;;
6197;SDS011;3132;42.622;23.328;2023-04-03T13:03:02;12.47;;;11.23;;
6197;SDS011;3132;42.622;23.328;2023-04-03T13:05:29;11.73;;;11.03;;
6197;SDS011;3132;42.622;23.328;2023-04-03T13:08:00;10.70;;;9.90;;
6197;SDS011;3132;42.622;23.328;2023-04-03T13:10:28;11.10;;;10.10;;
6197;SDS011;3132;42.622;23.328;2023-04-03T13:12:58;10.30;;;9.80;;
6197;SDS011;3132;42.622;23.328;2023-04-03T13:15:43;12.00;;;11.00;;
6197;SDS011;3132;42.622;23.328;2023-04-03T13:21:03;14.80;;;13.33;;
6197;SDS011;3132;42.622;23.328;2023-04-03T13:23:33;14.87;;;11.73;;
6197;SDS011;3132;42.622;23.328;2023-04-03T13:26:02;12.60;;;11.67;;
6197;SDS011;3132;42.622;23.328;2023-04-03T13:28:29;13.00;;;12.07;;
6197;SDS011;3132;42.622;23.328;2023-04-03T13:33:29;15.10;;;13.97;;
6197;SDS011;3132;42.622;23.328;2023-04-03T13:36:02;13.97;;;12.97;;
6197;SDS011;3132;42.622;23.328;2023-04-03T13:38:31;11.93;;;11.03;;
6197;SDS011;3132;42.622;23.328;2023-04-03T13:41:44;11.30;;;10.63;;
6197;SDS011;3132;42.622;23.328;2023-04-03T13:43:53;10.10;;;9.57;;
6197;SDS011;3132;42.622;23.328;2023-04-03T13:48:46;11.27;;;10.67;;
6197;SDS011;3132;42.622;23.328;2023-04-03T13:53:59;11.43;;;10.67;;
6197;SDS011;3132;42.622;23.328;2023-04-03T13:56:36;11.30;;;10.50;;
6197;SDS011;3132;42.622;23.328;2023-04-03T14:04:46;10.17;;;9.57;;
6197;SDS011;3132;42.622;23.328;2023-04-03T14:07:15;11.93;;;10.77;;
6197;SDS011;3132;42.622;23.328;2023-04-03T14:09:41;12.87;;;12.17;;
6197;SDS011;3132;42.622;23.328;2023-04-03T14:12:40;10.93;;;10.13;;
6197;SDS011;3132;42.622;23.328;2023-04-03T14:15:03;13.43;;;12.57;;
6197;SDS011;3132;42.622;23.328;2023-04-03T14:17:32;12.93;;;12.03;;
6197;SDS011;3132;42.622;23.328;2023-04-03T14:19:57;11.30;;;10.60;;
6197;SDS011;3132;42.622;23.328;2023-04-03T14:22:24;10.97;;;10.27;;
6197;SDS011;3132;42.622;23.328;2023-04-03T14:24:53;11.67;;;10.87;;
6197;SDS011;3132;42.622;23.328;2023-04-03T14:27:21;12.03;;;11.23;;
6197;SDS011;3132;42.622;23.328;2023-04-03T14:29:52;11.00;;;10.30;;
6197;SDS011;3132;42.622;23.328;2023-04-03T14:32:22;10.03;;;9.63;;
6197;SDS011;3132;42.622;23.328;2023-04-03T14:34:49;10.90;;;10.03;;
6197;SDS011;3132;42.622;23.328;2023-04-03T14:37:17;13.03;;;11.90;;
6197;SDS011;3132;42.622;23.328;2023-04-03T14:39:45;14.50;;;13.20;;
6197;SDS011;3132;42.622;23.328;2023-04-03T14:42:12;12.10;;;11.07;;
6197;SDS011;3132;42.622;23.328;2023-04-03T14:44:39;12.63;;;11.43;;
6197;SDS011;3132;42.622;23.328;2023-04-03T14:47:08;12.07;;;11.27;;
6197;SDS011;3132;42.622;23.328;2023-04-03T14:49:35;10.07;;;9.57;;
6197;SDS011;3132;42.622;23.328;2023-04-03T14:52:00;10.57;;;9.97;;
6197;SDS011;3132;42.622;23.328;2023-04-03T14:54:26;11.13;;;10.50;;
6197;SDS011;3132;42.622;23.328;2023-04-03T14:56:53;11.30;;;10.57;;
6197;SDS011;3132;42.622;23.328;2023-04-03T14:59:20;10.90;;;10.20;;
6197;SDS011;3132;42.622;23.328;2023-04-03T15:01:46;11.53;;;10.67;;
6197;SDS011;3132;42.622;23.328;2023-04-03T15:04:13;12.57;;;11.63;;
6197;SDS011;3132;42.622;23.328;2023-04-03T15:06:42;11.77;;;11.07;;
6197;SDS011;3132;42.622;23.328;2023-04-03T15:09:12;12.07;;;11.20;;
6197;SDS011;3132;42.622;23.328;2023-04-03T15:11:40;10.97;;;10.27;;
6197;SDS011;3132;42.622;23.328;2023-04-03T15:14:05;10.90;;;10.20;;
6197;SDS011;3132;42.622;23.328;2023-04-03T15:16:30;10.67;;;10.07;;
6197;SDS011;3132;42.622;23.328;2023-04-03T15:18:56;10.33;;;9.67;;
6197;SDS011;3132;42.622;23.328;2023-04-03T15:21:21;10.70;;;9.67;;
6197;SDS011;3132;42.622;23.328;2023-04-03T15:23:46;14.53;;;13.20;;
6197;SDS011;3132;42.622;23.328;2023-04-03T15:26:12;13.47;;;12.10;;
6197;SDS011;3132;42.622;23.328;2023-04-03T15:28:42;12.33;;;11.53;;
6197;SDS011;3132;42.622;23.328;2023-04-03T15:31:09;11.33;;;10.63;;
6197;SDS011;3132;42.622;23.328;2023-04-03T15:33:35;12.97;;;12.07;;
6197;SDS011;3132;42.622;23.328;2023-04-03T15:36:01;14.43;;;13.30;;
6197;SDS011;3132;42.622;23.328;2023-04-03T15:38:26;12.33;;;11.50;;
6197;SDS011;3132;42.622;23.328;2023-04-03T15:40:52;12.53;;;11.53;;
6197;SDS011;3132;42.622;23.328;2023-04-03T15:43:19;11.53;;;10.53;;
6197;SDS011;3132;42.622;23.328;2023-04-03T15:45:44;11.87;;;10.97;;
6197;SDS011;3132;42.622;23.328;2023-04-03T15:48:10;11.37;;;10.67;;
6197;SDS011;3132;42.622;23.328;2023-04-03T15:50:37;10.30;;;9.60;;
6197;SDS011;3132;42.622;23.328;2023-04-03T15:53:03;11.17;;;10.40;;
6197;SDS011;3132;42.622;23.328;2023-04-03T15:55:29;11.97;;;11.17;;
6197;SDS011;3132;42.622;23.328;2023-04-03T15:57:56;12.60;;;11.60;;
6197;SDS011;3132;42.622;23.328;2023-04-03T16:00:22;11.83;;;11.10;;
6197;SDS011;3132;42.622;23.328;2023-04-03T16:02:49;12.23;;;11.30;;
6197;SDS011;3132;42.622;23.328;2023-04-03T16:05:20;12.03;;;11.23;;
6197;SDS011;3132;42.622;23.328;2023-04-03T16:07:46;10.80;;;10.20;;
6197;SDS011;3132;42.622;23.328;2023-04-03T16:10:12;10.97;;;10.20;;
6197;SDS011;3132;42.622;23.328;2023-04-03T16:12:41;11.80;;;10.90;;
6197;SDS011;3132;42.622;23.328;2023-04-03T16:15:07;12.13;;;11.40;;
6197;SDS011;3132;42.622;23.328;2023-04-03T16:17:33;11.70;;;10.87;;
6197;SDS011;3132;42.622;23.328;2023-04-03T16:20:00;12.73;;;11.83;;
6197;SDS011;3132;42.622;23.328;2023-04-03T16:22:26;13.10;;;12.10;;
6197;SDS011;3132;42.622;23.328;2023-04-03T16:24:53;11.83;;;11.03;;
6197;SDS011;3132;42.622;23.328;2023-04-03T16:27:19;12.57;;;11.57;;
6197;SDS011;3132;42.622;23.328;2023-04-03T16:29:45;12.50;;;11.40;;
6197;SDS011;3132;42.622;23.328;2023-04-03T16:32:11;11.10;;;10.40;;
6197;SDS011;3132;42.622;23.328;2023-04-03T16:34:37;10.47;;;9.80;;
6197;SDS011;3132;42.622;23.328;2023-04-03T16:37:03;11.20;;;10.27;;
6197;SDS011;3132;42.622;23.328;2023-04-03T16:39:28;10.83;;;10.17;;
6197;SDS011;3132;42.622;23.328;2023-04-03T16:41:54;10.63;;;9.93;;
6197;SDS011;3132;42.622;23.328;2023-04-03T16:44:20;10.87;;;10.37;;
6197;SDS011;3132;42.622;23.328;2023-04-03T16:46:45;11.93;;;11.03;;
6197;SDS011;3132;42.622;23.328;2023-04-03T16:49:10;11.00;;;10.30;;
6197;SDS011;3132;42.622;23.328;2023-04-03T16:51:36;10.97;;;10.47;;
6197;SDS011;3132;42.622;23.328;2023-04-03T16:54:01;9.07;;;8.67;;
6197;SDS011;3132;42.622;23.328;2023-04-03T16:56:26;9.80;;;9.40;;
6197;SDS011;3132;42.622;23.328;2023-04-03T16:58:52;9.17;;;8.73;;
6197;SDS011;3132;42.622;23.328;2023-04-03T17:01:18;9.40;;;9.00;;
6197;SDS011;3132;42.622;23.328;2023-04-03T17:03:45;9.33;;;8.93;;